createdAt,value
2022-08-30T00:00:49.428Z,21.41
2022-08-30T00:03:16.823Z,21.37
2022-08-30T00:05:44.248Z,21.33
2022-08-30T00:08:11.027Z,21.30
2022-08-30T00:10:38.332Z,21.28
2022-08-30T00:13:06.605Z,21.25
2022-08-30T00:15:33.523Z,21.23
2022-08-30T00:18:00.435Z,21.21
2022-08-30T00:20:29.500Z,21.19
2022-08-30T00:22:56.268Z,21.16
2022-08-30T00:25:23.179Z,21.13
2022-08-30T00:27:50.248Z,21.11
2022-08-30T00:30:17.264Z,21.10
2022-08-30T00:32:44.076Z,21.06
2022-08-30T00:35:12.041Z,21.03
2022-08-30T00:37:38.963Z,21.02
2022-08-30T00:40:06.751Z,21.03
2022-08-30T00:42:33.830Z,21.04
2022-08-30T00:45:00.613Z,21.04
2022-08-30T00:47:27.358Z,21.04
2022-08-30T00:49:55.150Z,21.04
2022-08-30T00:52:22.246Z,21.03
2022-08-30T00:54:49.181Z,21.03
2022-08-30T00:57:15.948Z,21.02
2022-08-30T00:59:44.648Z,20.99
2022-08-30T01:02:11.626Z,20.97
2022-08-30T01:04:40.749Z,20.94
2022-08-30T01:07:08.339Z,20.93
2022-08-30T01:09:36.088Z,20.89
2022-08-30T01:12:04.724Z,20.86
2022-08-30T01:14:33.224Z,20.84
2022-08-30T01:17:01.576Z,20.81
2022-08-30T01:19:34.666Z,20.78
2022-08-30T01:22:18.826Z,20.75
2022-08-30T01:24:48.512Z,20.71
2022-08-30T01:27:15.942Z,20.67
2022-08-30T01:29:45.075Z,20.65
2022-08-30T01:32:29.791Z,20.63
2022-08-30T01:34:57.161Z,20.61
2022-08-30T01:37:27.209Z,20.57
2022-08-30T01:39:54.020Z,20.55
2022-08-30T01:42:20.892Z,20.52
2022-08-30T01:44:48.733Z,20.50
2022-08-30T01:47:15.838Z,20.45
2022-08-30T01:49:42.702Z,20.43
2022-08-30T01:52:09.429Z,20.41
2022-08-30T01:54:38.197Z,20.38
2022-08-30T01:57:10.076Z,20.36
2022-08-30T01:59:37.168Z,20.33
2022-08-30T02:02:04.421Z,20.32
2022-08-30T02:04:31.323Z,20.30
2022-08-30T02:06:58.091Z,20.28
2022-08-30T02:09:24.839Z,20.24
2022-08-30T02:11:51.959Z,20.21
2022-08-30T02:14:18.726Z,20.20
2022-08-30T02:16:48.508Z,20.18
2022-08-30T02:19:15.510Z,20.17
2022-08-30T02:21:42.259Z,20.15
2022-08-30T02:24:08.955Z,20.12
2022-08-30T02:26:36.675Z,20.10
2022-08-30T02:29:05.369Z,20.09
2022-08-30T02:31:32.423Z,20.07
2022-08-30T02:33:59.213Z,20.05
2022-08-30T02:36:25.950Z,20.03
2022-08-30T02:38:52.742Z,20.02
2022-08-30T02:41:19.744Z,20.02
2022-08-30T02:43:46.673Z,19.99
2022-08-30T02:46:14.094Z,19.97
2022-08-30T02:48:40.913Z,19.94
2022-08-30T02:51:11.167Z,19.91
2022-08-30T02:53:39.302Z,19.89
2022-08-30T02:56:06.107Z,19.86
2022-08-30T02:58:32.860Z,19.82
2022-08-30T03:00:59.679Z,19.77
2022-08-30T03:03:26.620Z,19.75
2022-08-30T03:05:53.395Z,19.72
2022-08-30T03:08:20.147Z,19.69
2022-08-30T03:10:46.897Z,19.67
2022-08-30T03:13:13.631Z,19.67
2022-08-30T03:15:40.584Z,19.64
2022-08-30T03:18:07.913Z,19.62
2022-08-30T03:20:37.520Z,19.61
2022-08-30T03:23:04.835Z,19.59
2022-08-30T03:25:31.670Z,19.57
2022-08-30T03:27:58.517Z,19.54
2022-08-30T03:30:25.505Z,19.51
2022-08-30T03:32:52.440Z,19.49
2022-08-30T03:35:19.374Z,19.48
2022-08-30T03:37:46.263Z,19.47
2022-08-30T03:40:14.540Z,19.44
2022-08-30T03:42:43.339Z,19.41
2022-08-30T03:45:11.066Z,19.39
2022-08-30T03:47:37.824Z,19.36
2022-08-30T03:50:08.008Z,19.35
2022-08-30T03:52:34.724Z,19.33
2022-08-30T03:55:01.558Z,19.28
2022-08-30T03:57:28.758Z,19.27
2022-08-30T03:59:55.499Z,19.25
2022-08-30T04:02:22.455Z,19.23
2022-08-30T04:04:49.299Z,19.21
2022-08-30T04:07:16.074Z,19.19
2022-08-30T04:09:42.793Z,19.18
2022-08-30T04:12:09.584Z,19.17
2022-08-30T04:14:36.287Z,19.16
2022-08-30T04:17:03.116Z,19.16
2022-08-30T04:19:29.850Z,19.15
2022-08-30T04:21:57.393Z,19.14
2022-08-30T04:24:24.332Z,19.13
2022-08-30T04:26:51.154Z,19.13
2022-08-30T04:29:18.007Z,19.14
2022-08-30T04:31:45.383Z,19.14
2022-08-30T04:34:12.953Z,19.13
2022-08-30T04:36:39.755Z,19.15
2022-08-30T04:39:07.402Z,19.17
2022-08-30T04:41:34.247Z,19.20
2022-08-30T04:44:03.125Z,19.21
2022-08-30T04:46:30.388Z,19.23
2022-08-30T04:48:57.139Z,19.27
2022-08-30T04:51:23.855Z,19.31
2022-08-30T04:53:50.603Z,19.35
2022-08-30T04:56:19.622Z,19.39
2022-08-30T04:58:47.438Z,19.44
2022-08-30T05:01:15.264Z,19.48
2022-08-30T05:03:46.246Z,19.53
2022-08-30T05:06:13.193Z,19.58
2022-08-30T05:08:39.937Z,19.63
2022-08-30T05:11:12.871Z,19.68
2022-08-30T05:13:39.675Z,19.73
2022-08-30T05:16:07.160Z,19.78
2022-08-30T05:18:34.864Z,19.82
2022-08-30T05:21:09.712Z,19.85
2022-08-30T05:23:37.047Z,19.88
2022-08-30T05:26:08.660Z,19.90
2022-08-30T05:28:35.903Z,19.93
2022-08-30T05:31:02.916Z,19.98
2022-08-30T05:33:30.082Z,20.02
2022-08-30T05:35:56.844Z,20.06
2022-08-30T05:38:23.593Z,20.10
2022-08-30T05:40:51.252Z,20.16
2022-08-30T05:43:18.540Z,20.21
2022-08-30T05:45:45.270Z,20.29
2022-08-30T05:48:13.050Z,20.43
2022-08-30T05:50:40.136Z,20.59
2022-08-30T05:53:06.993Z,20.74
2022-08-30T05:55:33.798Z,20.87
2022-08-30T05:58:00.837Z,21.01
2022-08-30T06:00:30.303Z,21.13
2022-08-30T06:02:57.328Z,21.25
2022-08-30T06:05:24.335Z,21.36
2022-08-30T06:07:51.180Z,21.46
2022-08-30T06:10:17.961Z,21.54
2022-08-30T06:12:44.780Z,21.62
2022-08-30T06:15:12.026Z,21.70
2022-08-30T06:17:39.802Z,21.76
2022-08-30T06:20:07.314Z,21.82
2022-08-30T06:22:34.440Z,21.88
2022-08-30T06:25:01.276Z,21.96
2022-08-30T06:27:28.143Z,22.02
2022-08-30T06:29:54.918Z,22.07
2022-08-30T06:32:21.768Z,22.12
2022-08-30T06:34:48.559Z,22.16
2022-08-30T06:37:29.311Z,22.22
2022-08-30T06:39:57.718Z,22.28
2022-08-30T06:42:30.513Z,22.34
2022-08-30T06:44:58.498Z,22.42
2022-08-30T06:47:25.259Z,22.48
2022-08-30T06:49:51.992Z,22.54
2022-08-30T06:52:19.227Z,22.60
2022-08-30T06:54:46.062Z,22.63
2022-08-30T06:57:13.041Z,22.66
2022-08-30T06:59:40.118Z,22.66
2022-08-30T07:02:07.012Z,22.65
2022-08-30T07:04:33.806Z,22.65
2022-08-30T07:07:00.663Z,22.66
2022-08-30T07:09:27.443Z,22.70
2022-08-30T07:11:54.249Z,22.75
2022-08-30T07:14:21.379Z,22.79
2022-08-30T07:16:51.118Z,22.82
2022-08-30T07:19:20.760Z,22.86
2022-08-30T07:21:49.291Z,22.88
2022-08-30T07:24:16.555Z,22.88
2022-08-30T07:26:47.264Z,22.90
2022-08-30T07:29:14.129Z,22.94
2022-08-30T07:31:40.943Z,23.00
2022-08-30T07:34:07.795Z,23.06
2022-08-30T07:36:35.348Z,23.10
2022-08-30T07:39:09.751Z,23.14
2022-08-30T07:41:38.756Z,23.15
2022-08-30T07:44:07.391Z,23.16
2022-08-30T07:46:34.568Z,23.17
2022-08-30T07:49:01.880Z,23.20
2022-08-30T07:51:31.000Z,23.24
2022-08-30T07:53:57.716Z,23.28
2022-08-30T07:56:24.635Z,23.33
2022-08-30T07:58:51.437Z,23.36
2022-08-30T08:01:18.383Z,23.39
2022-08-30T08:03:45.475Z,23.42
2022-08-30T08:06:13.446Z,23.45
2022-08-30T08:08:40.332Z,23.50
2022-08-30T08:11:16.256Z,23.56
2022-08-30T08:13:53.778Z,23.60
2022-08-30T08:16:22.502Z,23.63
2022-08-30T08:18:49.283Z,23.64
2022-08-30T08:21:16.100Z,23.67
2022-08-30T08:23:42.835Z,23.69
2022-08-30T08:26:09.634Z,23.73
2022-08-30T08:28:36.391Z,23.74
2022-08-30T08:31:03.528Z,23.77
2022-08-30T08:33:30.522Z,23.78
2022-08-30T08:35:57.255Z,23.81
2022-08-30T08:38:24.129Z,23.82
2022-08-30T08:41:10.484Z,23.84
2022-08-30T08:43:38.686Z,23.86
2022-08-30T08:46:10.905Z,23.88
2022-08-30T08:49:04.982Z,23.91
2022-08-30T08:51:52.246Z,23.94
2022-08-30T08:54:24.914Z,23.95
2022-08-30T08:56:51.712Z,23.98
2022-08-30T08:59:18.476Z,23.98
2022-08-30T09:01:45.290Z,23.96
2022-08-30T09:04:14.937Z,23.96
2022-08-30T09:06:58.951Z,23.97
2022-08-30T09:09:27.816Z,23.98
2022-08-30T09:11:54.579Z,24.00
2022-08-30T09:14:30.485Z,24.04
2022-08-30T09:17:05.300Z,24.06
2022-08-30T09:19:35.089Z,24.05
2022-08-30T09:22:05.018Z,24.04
2022-08-30T09:24:40.177Z,24.02
2022-08-30T09:27:17.051Z,24.02
2022-08-30T09:29:54.691Z,24.05
2022-08-30T09:32:37.253Z,24.10
2022-08-30T09:35:05.694Z,24.12
2022-08-30T09:37:35.812Z,24.14
2022-08-30T09:40:07.707Z,24.16
2022-08-30T09:42:34.485Z,24.18
2022-08-30T09:45:10.607Z,24.19
2022-08-30T09:47:42.428Z,24.20
2022-08-30T09:50:21.114Z,24.22
2022-08-30T09:53:10.599Z,24.25
2022-08-30T09:55:54.182Z,24.28
2022-08-30T09:58:30.067Z,24.31
2022-08-30T10:01:12.317Z,24.32
2022-08-30T10:03:44.101Z,24.34
2022-08-30T10:06:25.437Z,24.36
2022-08-30T10:09:03.819Z,24.36
2022-08-30T10:11:39.730Z,24.37
2022-08-30T10:14:12.465Z,24.37
2022-08-30T10:16:55.304Z,24.35
2022-08-30T10:19:47.521Z,24.35
2022-08-30T10:22:18.140Z,24.38
2022-08-30T10:24:48.159Z,24.41
2022-08-30T10:27:20.867Z,24.42
2022-08-30T10:29:51.402Z,24.43
2022-08-30T10:32:28.682Z,24.44
2022-08-30T10:38:06.430Z,24.51
2022-08-30T10:40:53.843Z,24.54
2022-08-30T10:43:32.035Z,24.58
2022-08-30T10:46:00.805Z,24.60
2022-08-30T10:48:31.324Z,24.61
2022-08-30T10:50:59.221Z,24.61
2022-08-30T10:53:34.134Z,24.62
2022-08-30T10:56:13.080Z,24.65
2022-08-30T10:58:40.996Z,24.71
2022-08-30T11:01:28.526Z,24.74
2022-08-30T11:04:29.358Z,24.77
2022-08-30T11:07:01.815Z,24.78
2022-08-30T11:09:42.674Z,24.81
2022-08-30T11:12:35.014Z,24.84
2022-08-30T11:15:13.628Z,24.88
2022-08-30T11:18:15.027Z,24.92
2022-08-30T11:20:50.888Z,24.96
2022-08-30T11:23:27.602Z,24.97
2022-08-30T11:26:06.090Z,24.98
2022-08-30T11:28:36.778Z,24.98
2022-08-30T11:31:18.499Z,25.01
2022-08-30T11:33:51.951Z,25.03
2022-08-30T11:36:46.282Z,25.06
2022-08-30T11:39:44.372Z,25.10
2022-08-30T11:42:32.490Z,25.12
2022-08-30T11:45:25.445Z,25.15
2022-08-30T11:48:00.790Z,25.17
2022-08-30T11:50:53.593Z,25.19
2022-08-30T11:53:43.953Z,25.22
2022-08-30T11:56:21.414Z,25.25
2022-08-30T11:59:01.730Z,25.29
2022-08-30T12:01:50.971Z,25.34
2022-08-30T12:04:19.514Z,25.40
2022-08-30T12:07:04.122Z,25.42
2022-08-30T12:09:32.927Z,25.45
2022-08-30T12:12:09.631Z,25.46
2022-08-30T12:15:58.476Z,25.48
2022-08-30T12:18:52.026Z,25.48
2022-08-30T12:21:22.049Z,25.48
2022-08-30T12:23:53.164Z,25.48
2022-08-30T12:26:26.035Z,25.49
2022-08-30T12:29:07.478Z,25.51
2022-08-30T12:31:34.244Z,25.52
2022-08-30T12:34:01.608Z,25.53
2022-08-30T12:36:52.606Z,25.52
2022-08-30T12:39:24.031Z,25.55
2022-08-30T12:41:50.833Z,25.56
2022-08-30T12:44:25.986Z,25.57
2022-08-30T12:46:59.754Z,25.56
2022-08-30T12:49:30.020Z,25.57
2022-08-30T12:51:57.514Z,25.60
2022-08-30T12:54:28.425Z,25.64
2022-08-30T12:59:56.741Z,25.70
2022-08-30T13:02:27.903Z,25.73
2022-08-30T13:04:55.562Z,25.75
2022-08-30T13:07:33.696Z,25.76
2022-08-30T13:10:06.402Z,25.76
2022-08-30T13:12:36.058Z,25.75
2022-08-30T13:15:10.596Z,25.73
2022-08-30T13:17:37.350Z,25.73
2022-08-30T13:20:22.012Z,25.73
2022-08-30T13:23:03.112Z,25.74
2022-08-30T13:25:32.904Z,25.76
2022-08-30T13:28:00.617Z,25.76
2022-08-30T13:30:27.609Z,25.74
2022-08-30T13:32:54.354Z,25.74
2022-08-30T13:35:21.526Z,25.75
2022-08-30T13:37:50.260Z,25.75
2022-08-30T13:40:19.151Z,25.76
2022-08-30T13:42:45.975Z,25.76
2022-08-30T13:48:00.998Z,25.75
2022-08-30T13:50:28.002Z,25.76
2022-08-30T13:52:54.739Z,25.75
2022-08-30T13:55:21.502Z,25.74
2022-08-30T13:57:56.390Z,25.69
2022-08-30T14:00:25.041Z,25.67
2022-08-30T14:02:57.502Z,25.66
2022-08-30T14:06:05.302Z,25.66
2022-08-30T14:08:45.306Z,25.67
2022-08-30T14:11:13.287Z,25.66
2022-08-30T14:14:14.776Z,25.65
2022-08-30T14:16:27.736Z,25.64
2022-08-30T14:18:55.349Z,25.63
2022-08-30T14:21:24.717Z,25.61
2022-08-30T14:23:56.084Z,25.61
2022-08-30T14:26:26.839Z,25.59
2022-08-30T14:28:59.333Z,25.59
2022-08-30T14:31:26.141Z,25.58
2022-08-30T14:33:53.089Z,25.57
2022-08-30T14:36:19.989Z,25.57
2022-08-30T14:38:48.458Z,25.57
2022-08-30T14:41:15.455Z,25.57
2022-08-30T14:43:42.257Z,25.57
2022-08-30T14:46:10.309Z,25.54
2022-08-30T14:48:37.626Z,25.50
2022-08-30T14:51:12.318Z,25.46
2022-08-30T14:53:39.147Z,25.45
2022-08-30T14:56:10.852Z,25.45
2022-08-30T14:58:37.757Z,25.43
2022-08-30T15:01:12.474Z,25.40
2022-08-30T15:03:40.007Z,25.36
2022-08-30T15:06:07.347Z,25.33
2022-08-30T15:08:34.985Z,25.31
2022-08-30T15:11:02.387Z,25.29
2022-08-30T15:13:29.139Z,25.27
2022-08-30T15:15:56.839Z,25.24
2022-08-30T15:18:24.575Z,25.23
2022-08-30T15:20:51.383Z,25.22
2022-08-30T15:23:18.226Z,25.21
2022-08-30T15:25:51.567Z,25.19
2022-08-30T15:28:19.316Z,25.17
2022-08-30T15:30:46.210Z,25.11
2022-08-30T15:33:12.930Z,25.06
2022-08-30T15:35:41.628Z,25.03
2022-08-30T15:38:08.564Z,24.99
2022-08-30T15:40:39.666Z,24.97
2022-08-30T15:43:06.591Z,24.94
2022-08-30T15:45:33.814Z,24.90
2022-08-30T15:48:00.800Z,24.85
2022-08-30T15:50:27.914Z,24.81
2022-08-30T15:52:54.975Z,24.77
2022-08-30T15:55:21.710Z,24.74
2022-08-30T15:57:48.509Z,24.71
2022-08-30T16:00:15.762Z,24.66
2022-08-30T16:02:43.038Z,24.62
2022-08-30T16:05:10.734Z,24.57
2022-08-30T16:07:40.529Z,24.53
2022-08-30T16:10:08.891Z,24.49
2022-08-30T16:12:35.635Z,24.45
2022-08-30T16:15:02.405Z,24.40
2022-08-30T16:17:29.217Z,24.35
2022-08-30T16:19:58.896Z,24.30
2022-08-30T16:22:26.592Z,24.25
2022-08-30T16:24:53.566Z,24.21
2022-08-30T16:27:21.167Z,24.17
2022-08-30T16:29:48.535Z,24.13
2022-08-30T16:32:17.440Z,24.08
2022-08-30T16:34:44.218Z,24.03
2022-08-30T16:37:11.006Z,23.97
2022-08-30T16:39:37.759Z,23.91
2022-08-30T16:42:06.898Z,23.85
2022-08-30T16:44:33.872Z,23.79
2022-08-30T16:47:01.720Z,23.73
2022-08-30T16:49:28.645Z,23.66
2022-08-30T16:51:56.112Z,23.58
2022-08-30T16:54:23.398Z,23.51
2022-08-30T16:56:50.297Z,23.42
2022-08-30T16:59:17.806Z,23.34
2022-08-30T17:01:45.744Z,23.23
2022-08-30T17:04:15.891Z,23.11
2022-08-30T17:06:46.137Z,22.97
2022-08-30T17:09:15.145Z,22.82
2022-08-30T17:11:42.201Z,22.67
2022-08-30T17:14:09.628Z,22.53
2022-08-30T17:16:37.171Z,22.41
2022-08-30T17:19:04.382Z,22.27
2022-08-30T17:21:32.251Z,22.12
2022-08-30T17:24:01.858Z,21.97
2022-08-30T17:26:33.388Z,21.80
2022-08-30T17:29:00.124Z,21.65
2022-08-30T17:31:29.285Z,21.51
2022-08-30T17:34:01.166Z,21.37
2022-08-30T17:36:31.142Z,21.21
2022-08-30T17:38:57.878Z,21.03
2022-08-30T17:41:24.612Z,20.88
2022-08-30T17:43:51.631Z,20.70
2022-08-30T17:46:19.592Z,20.53
2022-08-30T17:48:46.735Z,20.37
2022-08-30T17:51:13.543Z,20.25
2022-08-30T17:53:40.436Z,20.16
2022-08-30T17:56:08.636Z,20.08
2022-08-30T17:58:35.408Z,20.00
2022-08-30T18:01:11.768Z,19.93
2022-08-30T18:03:39.011Z,19.87
2022-08-30T18:06:07.192Z,19.81
2022-08-30T18:08:34.456Z,19.75
2022-08-30T18:11:01.732Z,19.68
2022-08-30T18:13:28.530Z,19.61
2022-08-30T18:15:56.622Z,19.57
2022-08-30T18:18:23.764Z,19.52
2022-08-30T18:20:51.053Z,19.48
2022-08-30T18:23:18.019Z,19.44
2022-08-30T18:25:57.873Z,19.38
2022-08-30T18:28:24.788Z,19.35
2022-08-30T18:30:52.872Z,19.30
2022-08-30T18:33:20.381Z,19.25
2022-08-30T18:35:48.728Z,19.21
2022-08-30T18:38:15.584Z,19.16
2022-08-30T18:40:42.535Z,19.09
2022-08-30T18:43:10.657Z,19.01
2022-08-30T18:45:37.769Z,18.94
2022-08-30T18:48:05.575Z,18.87
2022-08-30T18:50:32.468Z,18.81
2022-08-30T18:52:59.711Z,18.74
2022-08-30T18:55:26.841Z,18.69
2022-08-30T18:57:54.125Z,18.64
2022-08-30T19:00:21.746Z,18.61
2022-08-30T19:02:48.783Z,18.56
2022-08-30T19:05:16.323Z,18.52
2022-08-30T19:07:43.968Z,18.49
2022-08-30T19:10:12.384Z,18.46
2022-08-30T19:12:39.950Z,18.45
2022-08-30T19:15:10.854Z,18.45
2022-08-30T19:17:43.135Z,18.43
2022-08-30T19:20:11.459Z,18.41
2022-08-30T19:22:56.550Z,18.39
2022-08-30T19:25:25.354Z,18.36
2022-08-30T19:27:52.336Z,18.34
2022-08-30T19:30:29.677Z,18.33
2022-08-30T19:32:57.066Z,18.28
2022-08-30T19:35:24.250Z,18.26
2022-08-30T19:37:51.248Z,18.22
2022-08-30T19:40:18.503Z,18.16
2022-08-30T19:42:45.917Z,18.11
2022-08-30T19:45:32.242Z,18.06
2022-08-30T19:48:00.831Z,18.01
2022-08-30T19:50:27.628Z,17.98
2022-08-30T19:52:55.324Z,17.96
2022-08-30T19:55:28.680Z,17.92
2022-08-30T19:57:57.321Z,17.88
2022-08-30T20:00:24.114Z,17.85
2022-08-30T20:02:51.393Z,17.81
2022-08-30T20:05:18.938Z,17.78
2022-08-30T20:07:45.909Z,17.76
2022-08-30T20:10:13.831Z,17.74
2022-08-30T20:12:45.462Z,17.72
2022-08-30T20:15:14.594Z,17.69
2022-08-30T20:18:02.714Z,17.66
2022-08-30T20:20:29.196Z,17.63
2022-08-30T20:22:55.958Z,17.60
2022-08-30T20:25:22.866Z,17.57
2022-08-30T20:27:49.730Z,17.53
2022-08-30T20:30:17.072Z,17.50
2022-08-30T20:32:46.683Z,17.48
2022-08-30T20:35:14.922Z,17.45
2022-08-30T20:37:43.216Z,17.44
2022-08-30T20:40:15.020Z,17.42
2022-08-30T20:42:45.481Z,17.41
2022-08-30T20:45:14.051Z,17.38
2022-08-30T20:47:41.582Z,17.36
2022-08-30T20:50:13.794Z,17.33
2022-08-30T20:52:40.873Z,17.32
2022-08-30T20:55:08.291Z,17.29
2022-08-30T20:57:35.025Z,17.27
2022-08-30T21:00:01.824Z,17.25
2022-08-30T21:02:28.681Z,17.25
2022-08-30T21:04:55.817Z,17.25
2022-08-30T21:07:22.634Z,17.25
2022-08-30T21:09:50.235Z,17.26
2022-08-30T21:12:16.958Z,17.27
2022-08-30T21:14:43.700Z,17.28
2022-08-30T21:17:10.439Z,17.28
2022-08-30T21:19:40.878Z,17.30
2022-08-30T21:22:10.499Z,17.32
2022-08-30T21:24:37.295Z,17.34
2022-08-30T21:27:04.143Z,17.35
2022-08-30T21:29:33.074Z,17.33
2022-08-30T21:31:59.811Z,17.34
2022-08-30T21:34:26.596Z,17.37
2022-08-30T21:36:53.512Z,17.42
2022-08-30T21:39:20.526Z,17.48
2022-08-30T21:41:48.395Z,17.54
2022-08-30T21:44:17.543Z,17.59
2022-08-30T21:46:44.514Z,17.64
2022-08-30T21:49:12.288Z,17.68
2022-08-30T21:51:40.981Z,17.71
2022-08-30T21:54:08.769Z,17.73
2022-08-30T21:56:36.347Z,17.75
2022-08-30T21:59:04.188Z,17.78
2022-08-30T22:01:31.539Z,17.82
2022-08-30T22:04:00.188Z,17.87
2022-08-30T22:06:30.767Z,17.91
2022-08-30T22:08:58.466Z,17.95
2022-08-30T22:11:25.843Z,17.99
2022-08-30T22:13:52.970Z,18.03
2022-08-30T22:16:19.932Z,18.06
2022-08-30T22:18:46.694Z,18.09
2022-08-30T22:21:16.402Z,18.09
2022-08-30T22:23:43.700Z,18.08
2022-08-30T22:26:10.574Z,18.08
2022-08-30T22:28:37.415Z,18.05
2022-08-30T22:31:06.428Z,17.99
2022-08-30T22:33:33.205Z,17.93
2022-08-30T22:36:14.644Z,17.88
2022-08-30T22:38:41.383Z,17.83
2022-08-30T22:41:09.723Z,17.82
2022-08-30T22:43:36.639Z,17.82
2022-08-30T22:46:03.562Z,17.82
2022-08-30T22:48:30.338Z,17.80
2022-08-30T22:50:57.038Z,17.77
2022-08-30T22:53:23.799Z,17.73
2022-08-30T22:55:50.526Z,17.71
2022-08-30T22:58:19.016Z,17.69
2022-08-30T23:00:54.458Z,17.67
2022-08-30T23:03:22.007Z,17.62
2022-08-30T23:05:48.816Z,17.57
2022-08-30T23:08:15.515Z,17.50
2022-08-30T23:10:44.304Z,17.41
2022-08-30T23:13:11.240Z,17.32
2022-08-30T23:15:37.974Z,17.24
2022-08-30T23:18:04.704Z,17.18
2022-08-30T23:20:31.451Z,17.13
2022-08-30T23:22:58.139Z,17.11
2022-08-30T23:25:47.531Z,17.09
2022-08-30T23:28:37.886Z,17.03
2022-08-30T23:31:34.043Z,16.94
2022-08-30T23:34:19.447Z,16.86
2022-08-30T23:37:04.738Z,16.77
2022-08-30T23:39:50.054Z,16.69
2022-08-30T23:42:35.490Z,16.60
2022-08-30T23:45:20.814Z,16.53
2022-08-30T23:48:06.239Z,16.45
2022-08-30T23:50:51.263Z,16.40
2022-08-30T23:53:36.649Z,16.36
2022-08-30T23:56:22.023Z,16.33
2022-08-30T23:59:07.432Z,16.26
